Time;durP1;ratioP1;P1;durP2;ratioP2;P2;SDS_P1;SDS_P2;PMS_P1;PMS_P2;Temp;Humidity;BMP_temperature;BMP_pressure;BME280_temperature;BME280_humidity;BME280_pressure;Samples;Min_cycle;Max_cycle;Signal;HPM_P1;HPM_P2
2022/02/06 00:00:35;;;;;;;2.92;1.90;;;;;;;6.22;47.18;95884.94;5052231;28;20021;-69
2022/02/06 00:03:02;;;;;;;2.80;1.83;;;;;;;5.94;47.75;95892.22;5052224;28;20504;-68
2022/02/06 00:05:27;;;;;;;4.25;1.50;;;;;;;5.29;49.06;95874.06;5034479;28;20033;-69
2022/02/06 00:07:53;;;;;;;2.78;1.50;;;;;;;5.50;48.55;95864.44;5052413;28;20025;-68
2022/02/06 00:10:18;;;;;;;4.65;1.77;;;;;;;5.65;48.61;95872.47;5051815;28;20677;-68
2022/02/06 00:12:44;;;;;;;5.70;1.90;;;;;;;5.42;49.56;95876.25;5052463;28;20555;-69
2022/02/06 00:15:10;;;;;;;4.45;1.88;;;;;;;5.74;49.02;95863.03;5034771;28;20036;-68
2022/02/06 00:17:35;;;;;;;4.18;2.10;;;;;;;5.85;48.46;95861.22;5051642;28;20474;-68
2022/02/06 00:20:01;;;;;;;5.15;2.13;;;;;;;5.64;48.72;95871.69;5051740;28;20017;-68
2022/02/06 00:22:35;;;;;;;3.50;1.60;;;;;;;5.65;48.89;95870.63;5052028;28;20377;-68
2022/02/06 00:27:39;;;;;;;4.80;1.63;;;;;;;5.37;49.17;95840.06;5052255;28;20031;-69
2022/02/06 00:30:20;;;;;;;3.38;1.30;;;;;;;5.39;49.44;95860.94;5051285;28;20021;-68
2022/02/06 00:32:50;;;;;;;4.95;1.70;;;;;;;5.92;48.44;95841.50;5051320;28;20064;-68
2022/02/06 00:43:05;;;;;;;4.68;1.23;;;;;;;5.30;49.88;95844.00;5051760;28;20037;-68
2022/02/06 00:45:31;;;;;;;3.72;1.05;;;;;;;5.29;49.32;95837.91;5033990;28;20071;-68
2022/02/06 00:47:56;;;;;;;5.35;1.50;;;;;;;5.09;49.66;95822.72;5033405;28;20025;-68
2022/02/06 00:50:22;;;;;;;4.90;1.42;;;;;;;5.36;48.91;95825.28;5051246;28;20381;-68
2022/02/06 00:53:02;;;;;;;3.05;1.40;;;;;;;5.14;49.84;95819.34;5051106;28;20079;-68
2022/02/06 00:55:28;;;;;;;4.05;1.70;;;;;;;6.16;47.47;95831.31;5051479;28;20100;-68
2022/02/06 00:57:53;;;;;;;5.82;1.27;;;;;;;5.82;48.14;95819.50;5051412;28;20053;-68
2022/02/06 01:00:19;;;;;;;2.50;1.30;;;;;;;5.64;48.72;95820.72;5050806;28;20096;-68
2022/02/06 01:02:44;;;;;;;3.00;1.30;;;;;;;6.00;48.43;95816.44;5032515;28;20523;-68
2022/02/06 01:05:10;;;;;;;5.10;1.88;;;;;;;6.19;47.29;95799.09;5033239;28;20561;-68
2022/02/06 01:07:35;;;;;;;3.75;1.30;;;;;;;6.21;47.16;95812.81;5051201;28;20386;-68
2022/02/06 01:10:00;;;;;;;2.97;1.20;;;;;;;5.25;49.45;95809.66;5050912;28;20037;-68
2022/02/06 01:12:29;;;;;;;6.25;1.48;;;;;;;5.43;49.37;95799.50;5033053;28;20042;-68
2022/02/06 01:17:40;;;;;;;10.57;1.83;;;;;;;6.05;48.29;95810.41;5050691;28;20043;-68
2022/02/06 01:20:20;;;;;;;3.83;1.35;;;;;;;5.63;49.34;95819.94;5050621;28;20556;-69
2022/02/06 01:22:52;;;;;;;3.67;1.27;;;;;;;5.27;50.06;95787.25;5050804;28;20029;-68
2022/02/06 01:25:26;;;;;;;2.38;1.10;;;;;;;5.70;48.95;95780.91;5033116;28;20075;-68
2022/02/06 01:30:26;;;;;;;4.40;1.10;;;;;;;6.07;48.40;95801.16;5050563;28;20021;-68
2022/02/06 01:32:56;;;;;;;3.67;1.00;;;;;;;5.35;49.79;95799.19;5032453;28;20036;-68
2022/02/06 01:35:42;;;;;;;3.88;1.00;;;;;;;5.54;50.07;95803.00;5033147;28;20025;-68
2022/02/06 01:40:56;;;;;;;8.30;1.45;;;;;;;5.65;49.72;95788.00;5050481;28;20044;-68
2022/02/06 01:43:28;;;;;;;8.30;1.67;;;;;;;5.94;49.23;95769.97;5032805;28;20025;-68
2022/02/06 02:47:47;;;;;;;4.30;1.10;;;;;;;5.14;51.74;95730.47;5049521;28;20036;-69
2022/02/06 02:50:17;;;;;;;4.68;1.40;;;;;;;5.71;50.52;95739.47;5049426;28;20420;-69
2022/02/06 03:05:39;;;;;;;4.43;1.30;;;;;;;4.97;51.92;95702.69;5053622;28;20028;-68
2022/02/06 03:08:07;;;;;;;4.55;1.33;;;;;;;5.20;51.54;95695.16;5053377;28;20067;-68
2022/02/06 03:10:33;;;;;;;6.22;1.33;;;;;;;5.32;50.88;95715.25;5034780;28;20473;-68
2022/02/06 03:13:02;;;;;;;6.05;1.73;;;;;;;5.57;50.37;95720.66;5052627;28;20044;-68
2022/02/06 03:15:39;;;;;;;5.07;1.23;;;;;;;4.94;52.29;95714.53;5035048;28;20547;-68
2022/02/06 03:18:07;;;;;;;5.07;1.20;;;;;;;5.50;51.12;95703.50;5052695;28;20032;-68
2022/02/06 03:20:34;;;;;;;6.72;1.42;;;;;;;5.21;52.05;95723.13;5052629;28;20025;-68
2022/02/06 03:23:03;;;;;;;3.58;1.25;;;;;;;5.30;51.21;95702.34;5035077;28;20033;-68
2022/02/06 03:25:29;;;;;;;2.22;1.00;;;;;;;5.24;51.55;95697.31;5035222;28;20017;-69
2022/02/06 03:27:55;;;;;;;2.00;0.90;;;;;;;5.31;51.08;95703.91;5053005;28;20027;-68
2022/02/06 03:30:29;;;;;;;4.47;1.23;;;;;;;5.08;51.88;95701.69;5052427;28;20079;-68
2022/02/06 03:32:55;;;;;;;4.47;1.00;;;;;;;5.10;51.80;95718.06;5034600;28;20036;-68
2022/02/06 03:35:21;;;;;;;4.93;1.08;;;;;;;5.63;50.67;95706.47;5052600;28;20434;-68
2022/02/06 03:37:47;;;;;;;2.85;1.00;;;;;;;5.64;50.15;95715.16;5034765;28;20143;-68
2022/02/06 03:40:25;;;;;;;5.10;1.30;;;;;;;5.33;50.49;95691.28;5052269;28;20120;-68
2022/02/06 03:42:59;;;;;;;5.40;1.40;;;;;;;5.56;50.35;95703.25;5052661;28;20393;-68
2022/02/06 03:45:33;;;;;;;2.47;0.80;;;;;;;5.93;49.78;95694.41;5052823;28;20021;-68
2022/02/06 03:48:10;;;;;;;5.40;0.93;;;;;;;5.36;50.52;95713.72;5052259;28;20131;-68
2022/02/06 03:50:35;;;;;;;5.47;1.20;;;;;;;5.87;49.75;95682.22;5034139;28;20116;-68
2022/02/06 03:53:01;;;;;;;4.82;1.42;;;;;;;5.56;49.96;95678.72;5052334;28;20159;-68
2022/02/06 03:55:29;;;;;;;4.10;1.27;;;;;;;6.29;49.17;95686.56;5052517;28;20063;-68
2022/02/06 03:57:54;;;;;;;4.47;0.98;;;;;;;5.82;49.94;95676.94;5034286;28;20013;-68
2022/02/06 04:00:23;;;;;;;3.92;1.13;;;;;;;5.95;49.45;95673.84;5034032;28;20017;-68
2022/02/06 04:02:49;;;;;;;4.45;0.85;;;;;;;4.98;51.83;95662.88;5033818;28;20024;-68
2022/02/06 04:05:24;;;;;;;3.03;1.35;;;;;;;6.16;49.62;95683.38;5034239;28;20017;-68
2022/02/06 04:07:51;;;;;;;6.28;1.17;;;;;;;5.63;50.95;95673.97;5034324;28;20025;-69
2022/02/06 04:10:19;;;;;;;3.50;0.90;;;;;;;5.77;49.79;95661.09;5033809;28;20032;-68
2022/02/06 04:12:46;;;;;;;3.42;1.23;;;;;;;5.92;49.48;95659.31;5051337;28;20032;-68
2022/02/06 04:15:22;;;;;;;5.75;1.40;;;;;;;6.25;48.80;95657.25;5034178;28;20484;-68
2022/02/06 04:17:55;;;;;;;6.45;1.23;;;;;;;6.16;49.29;95643.75;5051690;28;20108;-68
2022/02/06 04:20:20;;;;;;;4.90;1.33;;;;;;;6.62;47.60;95643.75;5051422;28;20489;-68
2022/02/06 04:22:46;;;;;;;4.45;1.27;;;;;;;5.72;50.06;95657.38;5033972;28;20025;-68
2022/02/06 04:25:11;;;;;;;6.28;1.05;;;;;;;5.81;50.43;95635.75;5034086;28;20051;-68
2022/02/06 04:27:37;;;;;;;9.05;1.50;;;;;;;5.99;49.64;95632.66;5051949;28;20036;-68
2022/02/06 04:30:03;;;;;;;5.28;1.30;;;;;;;5.50;50.79;95640.16;5033701;28;20488;-68
2022/02/06 04:32:29;;;;;;;4.68;1.10;;;;;;;5.62;50.86;95635.44;5051006;28;20082;-68
2022/02/06 04:34:56;;;;;;;4.30;1.15;;;;;;;5.65;50.61;95598.78;5051813;28;20013;-68
2022/02/06 04:37:45;;;;;;;3.25;0.85;;;;;;;5.76;49.78;95614.63;5051998;28;20025;-68
2022/02/06 04:51:37;;;;;;;6.63;1.73;;;;;;;6.02;49.94;95624.19;5050941;28;20044;-68
2022/02/06 05:15:30;;;;;;;5.47;1.35;;;;;;;5.42;51.47;95586.03;5051432;28;20408;-68
2022/02/06 05:31:28;;;;;;;3.58;0.88;;;;;;;6.02;49.45;95571.38;5050566;28;20025;-68
2022/02/06 05:33:54;;;;;;;5.80;1.00;;;;;;;6.20;49.42;95544.44;5029392;28;20037;-69
2022/02/06 05:36:19;;;;;;;1.17;0.70;;;;;;;5.94;49.32;95571.94;5050588;28;20410;-69
2022/02/06 05:38:45;;;;;;;3.25;0.90;;;;;;;5.89;49.49;95535.72;5032157;28;20075;-68
2022/02/06 05:41:10;;;;;;;3.63;0.90;;;;;;;5.89;49.55;95534.94;5050479;28;20638;-68
2022/02/06 05:43:36;;;;;;;4.40;0.90;;;;;;;5.63;49.37;95542.00;5032571;28;20032;-68
2022/02/06 05:46:02;;;;;;;1.65;1.00;;;;;;;5.62;49.31;95520.13;5032834;28;20025;-68
2022/02/06 05:48:28;;;;;;;4.45;1.05;;;;;;;6.21;48.23;95543.38;5049860;28;20043;-68
2022/02/06 05:50:53;;;;;;;3.22;0.90;;;;;;;6.17;48.54;95547.59;5032498;28;20111;-68
2022/02/06 05:53:19;;;;;;;3.67;0.73;;;;;;;5.82;48.47;95552.88;5032456;28;20029;-69
2022/02/06 05:55:45;;;;;;;1.92;0.68;;;;;;;5.83;48.40;95541.25;5032933;28;20032;-68
2022/02/06 05:58:10;;;;;;;2.80;1.20;;;;;;;6.06;47.73;95551.31;5050376;28;20033;-68
2022/02/06 06:00:36;;;;;;;2.95;0.80;;;;;;;6.13;47.65;95543.91;5032167;28;20385;-68
2022/02/06 06:03:04;;;;;;;2.38;0.90;;;;;;;5.63;49.25;95568.41;5049997;28;20366;-68
2022/02/06 06:05:30;;;;;;;2.08;0.70;;;;;;;5.69;48.43;95551.53;5048795;28;20025;-68
2022/02/06 06:07:55;;;;;;;4.97;0.70;;;;;;;5.37;49.71;95562.28;5050404;28;20086;-68
2022/02/06 06:10:20;;;;;;;6.78;0.70;;;;;;;5.81;48.51;95546.78;5032120;28;20032;-68
2022/02/06 06:12:46;;;;;;;2.80;0.63;;;;;;;5.67;48.17;95554.44;5050360;28;20025;-68
2022/02/06 06:15:12;;;;;;;1.67;0.60;;;;;;;5.90;48.39;95552.34;5050351;28;20029;-69
2022/02/06 06:17:39;;;;;;;6.75;0.80;;;;;;;5.92;48.07;95566.09;5050032;28;20029;-68
2022/02/06 06:20:08;;;;;;;3.38;0.70;;;;;;;5.92;47.84;95566.88;5032025;28;20111;-69
2022/02/06 06:22:34;;;;;;;1.30;0.65;;;;;;;6.03;47.15;95543.91;5032359;28;20021;-68
2022/02/06 06:25:02;;;;;;;4.30;0.75;;;;;;;6.44;46.67;95557.09;5050441;28;20767;-68
2022/02/06 06:27:28;;;;;;;2.70;0.98;;;;;;;6.18;46.97;95553.69;5050368;28;20025;-68
2022/02/06 06:29:53;;;;;;;3.35;0.77;;;;;;;5.92;47.17;95551.03;5049926;28;20086;-68
2022/02/06 06:32:18;;;;;;;3.88;1.10;;;;;;;5.84;47.44;95580.59;5050153;28;20079;-69
2022/02/06 06:34:44;;;;;;;1.35;0.40;;;;;;;5.64;47.83;95543.63;5049564;28;20035;-68
2022/02/06 06:37:09;;;;;;;1.80;0.68;;;;;;;5.55;48.13;95556.53;5035231;28;20028;-69
2022/02/06 06:39:45;;;;;;;4.57;0.77;;;;;;;5.66;47.91;95558.13;5053708;28;20060;-68
2022/02/06 06:42:11;;;;;;;3.20;0.73;;;;;;;6.18;47.13;95567.69;5035883;28;20608;-68
2022/02/06 06:44:38;;;;;;;4.15;1.05;;;;;;;6.11;47.48;95567.16;5035921;28;20021;-69
2022/02/06 06:47:07;;;;;;;2.95;0.90;;;;;;;6.08;46.88;95561.59;5035759;28;20497;-68
2022/02/06 06:49:33;;;;;;;2.80;0.82;;;;;;;6.19;46.63;95547.34;5052924;28;20056;-68
2022/02/06 06:51:59;;;;;;;2.28;0.60;;;;;;;6.22;46.64;95554.75;5053964;28;20024;-69
2022/02/06 06:54:33;;;;;;;0.52;0.35;;;;;;;5.69;47.74;95538.34;5036203;28;20024;-69
2022/02/06 06:57:04;;;;;;;5.97;1.10;;;;;;;6.27;47.24;95546.03;5054527;28;20029;-69
2022/02/06 07:00:20;;;;;;;2.53;0.90;;;;;;;5.94;47.55;95538.38;5036180;28;20021;-68
2022/02/06 07:02:27;;;;;;;1.63;0.60;;;;;;;6.04;47.19;95545.53;5051517;28;20493;-69
2022/02/06 07:04:58;;;;;;;2.72;0.80;;;;;;;6.56;46.46;95554.19;5053384;28;20497;-68
2022/02/06 07:07:27;;;;;;;4.15;0.63;;;;;;;6.48;46.66;95556.28;5035423;28;20017;-68
2022/02/06 07:09:53;;;;;;;4.32;1.10;;;;;;;6.47;45.70;95540.69;5034990;28;20033;-68
2022/02/06 07:12:19;;;;;;;2.08;0.70;;;;;;;6.35;46.02;95529.63;5053130;28;20048;-68
2022/02/06 07:14:46;;;;;;;4.90;1.10;;;;;;;6.04;47.12;95548.16;5035438;28;20516;-69
2022/02/06 07:17:12;;;;;;;2.92;0.80;;;;;;;6.42;46.20;95548.66;5035507;28;20115;-68
2022/02/06 07:19:39;;;;;;;2.55;1.02;;;;;;;6.48;45.33;95540.44;5052426;28;20173;-68
2022/02/06 07:22:05;;;;;;;1.13;0.65;;;;;;;6.13;46.31;95535.19;5053276;28;20029;-68
2022/02/06 07:24:31;;;;;;;2.15;0.98;;;;;;;6.61;45.63;95533.81;5053481;28;20412;-68
2022/02/06 07:27:02;;;;;;;3.20;0.90;;;;;;;6.60;45.29;95539.34;5035402;28;20029;-68
2022/02/06 07:29:28;;;;;;;2.80;1.07;;;;;;;6.27;44.92;95501.13;5035113;28;20029;-68
2022/02/06 07:31:56;;;;;;;1.98;0.90;;;;;;;6.40;45.15;95521.72;5052803;28;20074;-68
2022/02/06 07:34:21;;;;;;;3.42;0.70;;;;;;;6.24;45.53;95515.63;5052363;28;20032;-68
2022/02/06 07:36:47;;;;;;;3.30;0.75;;;;;;;6.59;44.09;95469.84;5052795;28;20654;-68
2022/02/06 07:39:13;;;;;;;3.70;0.63;;;;;;;7.46;42.67;95485.25;5052521;28;20033;-69
2022/02/06 07:41:38;;;;;;;2.70;0.85;;;;;;;6.76;43.85;95491.47;5052242;28;20029;-69
2022/02/06 07:44:04;;;;;;;4.55;0.85;;;;;;;6.69;43.95;95490.94;5052356;28;20037;-68
2022/02/06 07:46:34;;;;;;;4.93;1.13;;;;;;;6.43;44.29;95481.53;5052301;28;20033;-68
2022/02/06 07:49:01;;;;;;;4.75;0.70;;;;;;;6.41;44.00;95495.00;5051367;28;20090;-68
2022/02/06 07:51:28;;;;;;;2.55;0.77;;;;;;;6.84;43.48;95492.72;5034264;28;20040;-68
2022/02/06 07:53:53;;;;;;;8.02;1.02;;;;;;;6.32;45.20;95506.38;5052464;28;20037;-68
2022/02/06 07:56:18;;;;;;;2.28;0.63;;;;;;;6.32;44.64;95482.59;5052421;28;20498;-68
2022/02/06 07:58:44;;;;;;;1.67;0.57;;;;;;;5.64;45.50;95443.34;5034205;28;20021;-68
2022/02/06 08:01:10;;;;;;;1.73;0.57;;;;;;;6.25;44.78;95486.31;5034518;28;20083;-68
2022/02/06 08:03:36;;;;;;;3.70;1.27;;;;;;;6.23;45.07;95483.16;5033961;28;20108;-70
2022/02/06 08:06:01;;;;;;;4.57;1.15;;;;;;;6.49;44.43;95454.78;5051662;28;20128;-69
2022/02/06 08:08:26;;;;;;;1.83;0.98;;;;;;;6.60;43.30;95471.41;5051826;28;20025;-70
2022/02/06 08:10:58;;;;;;;5.22;0.90;;;;;;;6.69;43.36;95475.06;5051999;28;20517;-71
2022/02/06 08:13:28;;;;;;;1.70;0.70;;;;;;;7.42;42.72;95508.84;5052150;28;20025;-71
2022/02/06 08:15:54;;;;;;;3.75;0.60;;;;;;;6.49;43.92;95467.22;5052136;28;20035;-71
2022/02/06 08:18:20;;;;;;;3.45;0.70;;;;;;;7.03;43.43;95474.41;5034471;28;20029;-71
2022/02/06 08:20:45;;;;;;;3.53;0.93;;;;;;;7.02;43.52;95497.44;5051319;28;20038;-68
2022/02/06 08:23:11;;;;;;;5.78;1.10;;;;;;;6.09;44.42;95444.34;5051940;28;20032;-73
2022/02/06 08:25:36;;;;;;;5.38;0.85;;;;;;;6.64;44.35;95472.47;5034136;28;20037;-71
2022/02/06 08:28:03;;;;;;;2.28;0.60;;;;;;;6.18;44.51;95390.72;5051717;28;20060;-68
2022/02/06 08:30:30;;;;;;;5.03;0.95;;;;;;;6.42;44.94;95478.09;5034034;28;20033;-70
2022/02/06 08:32:56;;;;;;;2.05;1.00;;;;;;;6.57;44.82;95476.47;5051745;28;20477;-65
2022/02/06 08:35:22;;;;;;;3.95;0.75;;;;;;;6.82;44.37;95476.38;5051161;28;20028;-67
2022/02/06 08:37:49;;;;;;;4.80;0.68;;;;;;;7.57;43.69;95473.53;5051620;28;20435;-69
2022/02/06 08:40:16;;;;;;;4.90;0.70;;;;;;;6.61;44.67;95467.72;5051113;28;20028;-70
2022/02/06 08:42:43;;;;;;;2.00;0.57;;;;;;;6.11;45.52;95440.41;5051686;28;20043;-70
2022/02/06 08:45:11;;;;;;;2.17;0.50;;;;;;;6.56;44.87;95412.25;5051608;28;20021;-70
2022/02/06 08:47:37;;;;;;;1.67;0.68;;;;;;;7.22;43.79;95454.19;5051745;28;20414;-70
2022/02/06 08:50:04;;;;;;;2.22;0.63;;;;;;;6.49;44.38;95422.28;5032773;28;20051;-70
2022/02/06 08:52:29;;;;;;;2.60;0.63;;;;;;;7.06;43.92;95446.59;5051125;28;20043;-70
2022/02/06 08:54:55;;;;;;;1.73;0.55;;;;;;;6.89;43.90;95431.09;5051307;28;20029;-70
2022/02/06 08:57:24;;;;;;;5.20;0.80;;;;;;;8.85;45.58;95399.63;5051217;28;20024;-68
2022/02/06 08:59:50;;;;;;;0.85;0.50;;;;;;;8.70;41.29;95413.09;5050573;28;20050;-70
2022/02/06 09:02:16;;;;;;;3.35;0.65;;;;;;;7.73;41.89;95408.03;5051219;28;20465;-72
2022/02/06 09:04:42;;;;;;;4.00;0.93;;;;;;;7.97;41.31;95402.75;5050590;28;20032;-70
2022/02/06 09:07:09;;;;;;;3.13;0.80;;;;;;;7.89;42.22;95406.03;5051122;28;20032;-70
2022/02/06 09:09:35;;;;;;;3.15;0.73;;;;;;;7.26;42.93;95357.31;5051052;28;20025;-70
2022/02/06 09:12:02;;;;;;;4.47;1.42;;;;;;;8.27;40.82;95359.22;5051198;28;20508;-70
2022/02/06 09:14:28;;;;;;;1.92;0.95;;;;;;;7.89;41.44;95358.34;5051666;28;20057;-70
2022/02/06 09:16:55;;;;;;;2.13;0.75;;;;;;;8.39;40.49;95329.69;5033800;28;20057;-70
2022/02/06 09:19:21;;;;;;;1.50;0.70;;;;;;;8.49;40.23;95353.41;5050145;28;20044;-70
2022/02/06 09:21:47;;;;;;;3.75;0.80;;;;;;;7.80;42.06;95392.59;5050832;28;20474;-70
2022/02/06 09:24:12;;;;;;;4.65;1.08;;;;;;;7.35;43.12;95362.81;5032969;28;20059;-71
2022/02/06 09:26:40;;;;;;;9.70;0.75;;;;;;;7.48;42.04;95340.22;5051428;28;20527;-70
2022/02/06 09:29:06;;;;;;;2.78;0.77;;;;;;;8.80;40.23;95359.09;5050601;28;20071;-71
2022/02/06 09:31:32;;;;;;;4.82;0.75;;;;;;;7.40;41.79;95320.41;5050962;28;20036;-70
2022/02/06 09:36:24;;;;;;;4.20;0.98;;;;;;;7.86;41.43;95333.19;5050772;28;20470;-70
2022/02/06 09:38:49;;;;;;;1.08;0.50;;;;;;;7.82;41.20;95329.53;5050925;28;20143;-72
2022/02/06 09:41:14;;;;;;;1.45;0.68;;;;;;;7.99;41.94;95377.56;5051172;28;20493;-71
2022/02/06 09:43:44;;;;;;;0.35;0.30;;;;;;;7.56;42.75;95377.44;5051263;28;20512;-70
2022/02/06 09:46:12;;;;;;;2.22;0.63;;;;;;;7.63;42.80;95382.44;5033158;28;20582;-71
2022/02/06 09:48:38;;;;;;;2.45;0.63;;;;;;;8.50;40.37;95323.22;5050000;28;20032;-71
2022/02/06 09:51:04;;;;;;;2.72;0.60;;;;;;;7.66;41.77;95336.84;5050231;28;20465;-70
2022/02/06 09:53:30;;;;;;;4.55;1.25;;;;;;;8.23;41.13;95359.00;5050580;28;20017;-70
2022/02/06 09:56:00;;;;;;;5.05;1.10;;;;;;;8.19;40.57;95360.66;5050384;28;20036;-71
2022/02/06 10:00:53;;;;;;;1.95;0.90;;;;;;;8.83;39.94;95351.38;5050509;28;20196;-72
2022/02/06 10:03:19;;;;;;;3.30;0.65;;;;;;;7.64;41.92;95370.75;5033088;28;20107;-77
2022/02/06 10:05:46;;;;;;;1.70;0.80;;;;;;;7.79;41.09;95344.13;5050162;28;20083;-71
2022/02/06 10:08:36;;;;;;;1.58;0.85;;;;;;;7.63;41.88;95377.13;5032387;28;20056;-71
2022/02/06 10:11:12;;;;;;;1.92;0.65;;;;;;;8.00;42.03;95363.25;5051970;28;20061;-71
2022/02/06 10:13:39;;;;;;;0.82;0.38;;;;;;;7.84;42.18;95353.09;5054397;28;20524;-71
2022/02/06 10:16:07;;;;;;;2.15;0.70;;;;;;;8.43;40.90;95354.56;5054702;28;20028;-70
2022/02/06 10:18:32;;;;;;;1.73;0.80;;;;;;;7.42;41.75;95297.13;5053980;28;20496;-73
2022/02/06 10:20:58;;;;;;;2.50;1.10;;;;;;;7.75;41.56;95347.63;5053775;28;20021;-75
2022/02/06 10:26:10;;;;;;;0.85;0.50;;;;;;;7.92;41.20;95349.81;5053863;28;20067;-70
2022/02/06 10:28:44;;;;;;;1.55;0.60;;;;;;;7.94;40.60;95339.75;5053707;28;20021;-68
2022/02/06 10:31:10;;;;;;;2.70;0.95;;;;;;;7.36;41.75;95295.56;5053337;28;20021;-73
2022/02/06 10:33:53;;;;;;;2.15;0.60;;;;;;;7.41;40.94;95232.00;5053703;28;20060;-70
2022/02/06 10:36:36;;;;;;;1.20;0.40;;;;;;;7.89;41.34;95316.75;5050506;28;20511;-78
2022/02/06 10:39:06;;;;;;;4.72;0.73;;;;;;;8.44;39.83;95269.44;5033048;28;20433;-70
2022/02/06 10:41:34;;;;;;;1.13;0.70;;;;;;;8.89;39.61;95308.84;5033669;28;20031;-70
2022/02/06 10:44:07;;;;;;;2.45;0.57;;;;;;;7.79;40.78;95255.97;5033036;28;20382;-70
2022/02/06 10:46:42;;;;;;;2.50;0.73;;;;;;;7.24;41.18;95232.47;5016147;28;20025;-69
2022/02/06 10:49:14;;;;;;;1.73;0.73;;;;;;;7.11;41.87;95261.41;5037045;28;20096;-69
2022/02/06 10:51:58;;;;;;;2.95;0.90;;;;;;;8.45;40.44;95317.97;5054002;28;20044;-72
2022/02/06 10:54:30;;;;;;;2.25;0.80;;;;;;;8.34;40.28;95315.44;5036104;28;20048;-72
2022/02/06 10:57:05;;;;;;;10.43;1.13;;;;;;;8.08;39.68;95229.34;5036420;28;20441;-70
2022/02/06 10:59:43;;;;;;;3.40;1.00;;;;;;;8.57;40.09;95292.59;5053337;28;20381;-73
2022/02/06 11:02:29;;;;;;;2.22;0.57;;;;;;;8.32;41.12;95275.16;5035643;28;20025;-72
2022/02/06 11:05:02;;;;;;;1.45;0.98;;;;;;;8.62;40.81;95285.66;5035377;28;20021;-71
2022/02/06 11:07:28;;;;;;;4.35;0.90;;;;;;;8.64;40.59;95278.97;5053464;28;20088;-70
2022/02/06 11:10:08;;;;;;;3.53;0.68;;;;;;;8.03;41.29;95190.47;5052986;28;20039;-69
2022/02/06 11:12:34;;;;;;;1.23;0.77;;;;;;;7.98;41.29;95182.59;5035293;28;20389;-78
2022/02/06 11:15:02;;;;;;;1.98;0.68;;;;;;;8.35;41.40;95242.00;5053458;28;20025;-70
2022/02/06 11:17:32;;;;;;;3.45;1.10;;;;;;;9.25;39.39;95234.75;5053191;28;20021;-70
2022/02/06 11:19:59;;;;;;;3.75;0.85;;;;;;;9.26;39.94;95207.91;5052591;28;20017;-69
2022/02/06 11:22:26;;;;;;;1.45;0.70;;;;;;;8.90;39.75;95185.75;5052845;28;20421;-69
2022/02/06 11:24:52;;;;;;;2.25;0.80;;;;;;;8.50;40.80;95175.53;5052778;28;20017;-72
2022/02/06 11:27:19;;;;;;;2.17;1.10;;;;;;;9.66;38.66;95163.06;5053285;28;20421;-68
2022/02/06 11:29:46;;;;;;;3.30;1.10;;;;;;;9.82;38.42;95184.81;5052711;28;20045;-70
2022/02/06 11:32:13;;;;;;;2.00;1.02;;;;;;;8.80;38.67;95092.03;5052905;28;20027;-72
2022/02/06 11:34:42;;;;;;;4.75;1.08;;;;;;;9.34;38.88;95174.59;5052780;28;21292;-71
2022/02/06 11:46:10;;;;;;;5.53;0.70;;;;;;;8.49;39.96;95151.94;5004143;28;20040;-70
2022/02/06 11:48:38;;;;;;;1.10;0.47;;;;;;;7.71;40.91;95124.97;5052835;28;20500;-72
2022/02/06 11:51:04;;;;;;;2.78;1.00;;;;;;;8.64;38.94;95080.09;5052311;28;20033;-70
2022/02/06 11:53:38;;;;;;;2.50;0.80;;;;;;;9.18;38.83;95133.50;5035001;28;20104;-70
2022/02/06 11:56:30;;;;;;;1.75;0.65;;;;;;;9.08;38.73;95123.88;5034864;28;20047;-69
2022/02/06 11:59:07;;;;;;;2.78;0.90;;;;;;;8.68;39.25;95093.56;5034196;28;20095;-69
2022/02/06 12:01:32;;;;;;;4.35;1.40;;;;;;;8.85;38.87;95096.44;5052279;28;20116;-70
2022/02/06 12:04:28;;;;;;;4.65;1.20;;;;;;;8.80;39.26;95102.66;5052133;28;20028;-70
2022/02/06 12:06:56;;;;;;;2.15;0.82;;;;;;;8.80;39.44;95113.25;5045315;28;20021;-72
2022/02/06 12:09:23;;;;;;;1.65;0.73;;;;;;;8.63;38.72;95102.41;5052100;28;20013;-69
2022/02/06 12:12:04;;;;;;;2.35;0.80;;;;;;;8.58;38.69;95089.22;5051992;28;20025;-67
2022/02/06 12:14:37;;;;;;;3.50;0.70;;;;;;;8.18;38.98;95090.66;5034380;28;20029;-70
2022/02/06 12:17:45;;;;;;;4.38;1.05;;;;;;;9.55;37.08;95071.44;5052306;28;20091;-72
2022/02/06 12:20:12;;;;;;;1.85;0.55;;;;;;;8.69;37.17;95077.34;5033577;28;20146;-70
2022/02/06 12:22:50;;;;;;;5.13;0.40;;;;;;;8.31;37.34;95069.50;5033627;28;20032;-71
2022/02/06 12:25:20;;;;;;;1.67;0.82;;;;;;;9.24;36.04;95060.69;5034083;28;20108;-70
2022/02/06 12:27:48;;;;;;;3.03;0.80;;;;;;;9.20;35.66;95010.03;5051876;28;20377;-70
2022/02/06 12:30:26;;;;;;;1.75;0.70;;;;;;;9.30;36.08;95062.13;5033823;28;20489;-71
2022/02/06 12:33:19;;;;;;;0.73;0.57;;;;;;;9.52;36.16;95048.13;5051643;28;20029;-69
2022/02/06 12:38:29;;;;;;;2.15;0.70;;;;;;;8.38;38.38;95047.16;5051491;28;20035;-70
2022/02/06 12:40:54;;;;;;;2.45;0.65;;;;;;;8.92;37.27;95035.84;5051703;28;20428;-69
2022/02/06 12:43:27;;;;;;;2.20;0.88;;;;;;;9.33;37.10;95048.28;5033764;28;20032;-70
2022/02/06 12:45:52;;;;;;;2.03;0.63;;;;;;;9.50;36.89;95039.69;5051666;28;20024;-69
2022/02/06 12:48:21;;;;;;;1.67;0.77;;;;;;;9.54;36.75;95011.44;5051526;28;20447;-71
2022/02/06 12:50:47;;;;;;;1.83;0.60;;;;;;;8.79;37.71;95026.78;5033854;28;20036;-71
2022/02/06 12:53:20;;;;;;;2.45;0.70;;;;;;;9.46;37.16;95006.84;5051537;28;20100;-70
2022/02/06 12:55:48;;;;;;;0.98;0.50;;;;;;;9.43;36.54;94999.50;5051707;28;20091;-69
2022/02/06 12:58:17;;;;;;;1.00;0.60;;;;;;;8.90;38.55;95008.03;5051445;28;20575;-69
2022/02/06 13:00:49;;;;;;;0.98;0.52;;;;;;;9.47;37.38;95006.56;5051272;28;20075;-68
2022/02/06 13:03:45;;;;;;;1.30;1.10;;;;;;;9.04;39.04;94991.00;5051922;28;20058;-70
2022/02/06 13:06:15;;;;;;;0.73;0.60;;;;;;;9.10;39.77;94976.53;5050302;28;20043;-70
2022/02/06 13:08:42;;;;;;;0.93;0.60;;;;;;;8.47;40.35;94961.38;5050612;28;20032;-69
2022/02/06 13:11:16;;;;;;;1.50;0.40;;;;;;;9.16;38.54;94941.94;5050875;28;20028;-69
2022/02/06 13:13:55;;;;;;;3.22;0.65;;;;;;;8.85;39.50;94959.31;5051141;28;20032;-70
2022/02/06 13:19:11;;;;;;;1.77;0.73;;;;;;;8.61;39.85;94897.75;5050567;28;20017;-69
2022/02/06 13:21:50;;;;;;;1.13;0.43;;;;;;;8.66;40.11;94941.94;5050037;28;20492;-69
2022/02/06 13:24:26;;;;;;;2.88;0.60;;;;;;;9.24;38.93;94909.41;5050736;28;20021;-71
2022/02/06 13:32:54;;;;;;;5.47;0.68;;;;;;;8.02;40.52;94872.91;5051537;28;20043;-73
2022/02/06 13:38:10;;;;;;;2.15;0.60;;;;;;;8.99;39.54;94930.09;5050844;28;20036;-70
2022/02/06 13:40:47;;;;;;;1.25;0.60;;;;;;;8.37;40.09;94899.84;5050218;28;20109;-70
2022/02/06 13:43:25;;;;;;;1.73;0.50;;;;;;;8.74;39.90;94874.94;5050821;28;20074;-71
2022/02/06 13:45:55;;;;;;;2.03;1.05;;;;;;;9.00;39.96;94905.13;5050568;28;20463;-69
2022/02/06 13:48:23;;;;;;;1.52;0.70;;;;;;;8.68;40.24;94908.75;5050851;28;20019;-70
2022/02/06 13:50:55;;;;;;;2.67;0.88;;;;;;;9.02;39.83;94900.34;5032486;28;20135;-70
2022/02/06 13:53:23;;;;;;;;;;;;;;;9.49;39.43;94918.63;5033026;28;20017;-70
2022/02/06 13:56:01;;;;;;;1.83;0.52;;;;;;;8.72;39.79;94898.34;5033027;28;19912;-70
2022/02/06 13:58:28;;;;;;;2.70;0.80;;;;;;;9.15;39.70;94901.34;5032434;28;20021;-72
2022/02/06 14:01:08;;;;;;;1.77;0.80;;;;;;;9.52;39.52;94900.25;5050593;28;20028;-70
2022/02/06 14:03:52;;;;;;;6.97;0.52;;;;;;;8.62;40.19;94862.22;5032733;28;20033;-73
2022/02/06 14:06:21;;;;;;;1.75;0.80;;;;;;;8.79;40.52;94893.41;5050836;28;20107;-70
2022/02/06 14:12:00;;;;;;;1.40;0.40;;;;;;;8.39;41.20;94871.94;5030409;28;20044;-70
2022/02/06 14:14:27;;;;;;;3.13;0.80;;;;;;;8.94;40.36;94857.81;5050463;28;20037;-69
2022/02/06 14:16:55;;;;;;;2.50;0.80;;;;;;;8.96;40.43;94834.44;5050192;28;20517;-69
2022/02/06 14:19:39;;;;;;;3.40;0.60;;;;;;;8.61;41.44;94854.56;5050163;28;20025;-70
2022/02/06 14:22:05;;;;;;;1.42;0.43;;;;;;;9.13;40.10;94834.56;5049955;28;20428;-70
2022/02/06 14:24:50;;;;;;;4.18;0.90;;;;;;;9.29;39.64;94827.78;5031945;28;20029;-70
2022/02/06 14:27:36;;;;;;;1.60;0.50;;;;;;;9.01;40.28;94813.09;5050100;28;20029;-69
2022/02/06 14:30:10;;;;;;;0.90;0.40;;;;;;;9.03;39.97;94826.81;5049992;28;20460;-70
2022/02/06 14:32:56;;;;;;;2.17;0.70;;;;;;;9.00;41.03;94812.28;5050228;28;20032;-69
2022/02/06 14:35:26;;;;;;;1.45;0.68;;;;;;;9.40;39.72;94811.59;5049975;28;20473;-69
2022/02/06 14:37:56;;;;;;;1.60;0.60;;;;;;;9.47;39.83;94790.72;5032229;28;20028;-69
2022/02/06 14:43:16;;;;;;;1.95;0.50;;;;;;;9.18;40.50;94791.97;5021197;28;20033;-70
2022/02/06 14:46:00;;;;;;;2.72;0.65;;;;;;;9.01;40.84;94794.53;5049939;28;20025;-70
2022/02/06 14:48:26;;;;;;;1.38;0.50;;;;;;;8.96;41.00;94774.19;5031959;28;20080;-70